sensor_id;sensor_type;location;lat;lon;timestamp;P1;durP1;ratioP1;P2;durP2;ratioP2
67248;SDS011;63247;54.300;18.592;2022-12-18T00:01:19;47.95;;;13.52;;
67248;SDS011;63247;54.300;18.592;2022-12-18T00:03:46;55.70;;;14.57;;
67248;SDS011;63247;54.300;18.592;2022-12-18T00:06:12;51.03;;;14.10;;
67248;SDS011;63247;54.300;18.592;2022-12-18T00:08:38;51.38;;;15.18;;
67248;SDS011;63247;54.300;18.592;2022-12-18T00:11:08;51.65;;;15.07;;
67248;SDS011;63247;54.300;18.592;2022-12-18T00:13:36;40.43;;;13.00;;
67248;SDS011;63247;54.300;18.592;2022-12-18T00:16:05;50.95;;;13.35;;
67248;SDS011;63247;54.300;18.592;2022-12-18T00:18:31;45.20;;;13.35;;
67248;SDS011;63247;54.300;18.592;2022-12-18T00:21:01;48.43;;;14.13;;
67248;SDS011;63247;54.300;18.592;2022-12-18T00:23:29;44.03;;;12.25;;
67248;SDS011;63247;54.300;18.592;2022-12-18T00:25:55;37.70;;;10.30;;
67248;SDS011;63247;54.300;18.592;2022-12-18T00:28:28;39.40;;;10.33;;
67248;SDS011;63247;54.300;18.592;2022-12-18T00:31:03;43.53;;;11.13;;
67248;SDS011;63247;54.300;18.592;2022-12-18T00:33:30;37.20;;;11.17;;
67248;SDS011;63247;54.300;18.592;2022-12-18T00:36:00;42.83;;;11.98;;
67248;SDS011;63247;54.300;18.592;2022-12-18T00:38:29;36.78;;;12.07;;
67248;SDS011;63247;54.300;18.592;2022-12-18T00:40:55;50.42;;;13.50;;
67248;SDS011;63247;54.300;18.592;2022-12-18T00:43:20;42.27;;;11.73;;
67248;SDS011;63247;54.300;18.592;2022-12-18T00:45:46;46.30;;;12.63;;
67248;SDS011;63247;54.300;18.592;2022-12-18T00:48:11;42.73;;;12.03;;
67248;SDS011;63247;54.300;18.592;2022-12-18T00:50:37;45.67;;;12.30;;
67248;SDS011;63247;54.300;18.592;2022-12-18T00:53:03;49.10;;;13.93;;
67248;SDS011;63247;54.300;18.592;2022-12-18T00:55:29;51.47;;;13.48;;
67248;SDS011;63247;54.300;18.592;2022-12-18T00:57:54;41.87;;;10.33;;
67248;SDS011;63247;54.300;18.592;2022-12-18T01:00:20;50.23;;;13.50;;
67248;SDS011;63247;54.300;18.592;2022-12-18T01:02:45;50.35;;;13.50;;
67248;SDS011;63247;54.300;18.592;2022-12-18T01:05:11;53.83;;;13.27;;
67248;SDS011;63247;54.300;18.592;2022-12-18T01:07:37;48.50;;;11.98;;
67248;SDS011;63247;54.300;18.592;2022-12-18T01:10:03;49.93;;;12.07;;
67248;SDS011;63247;54.300;18.592;2022-12-18T01:12:30;36.08;;;9.73;;
67248;SDS011;63247;54.300;18.592;2022-12-18T01:14:55;54.10;;;13.17;;
67248;SDS011;63247;54.300;18.592;2022-12-18T01:17:21;42.70;;;10.77;;
67248;SDS011;63247;54.300;18.592;2022-12-18T01:19:46;38.85;;;10.88;;
67248;SDS011;63247;54.300;18.592;2022-12-18T01:22:12;58.73;;;14.00;;
67248;SDS011;63247;54.300;18.592;2022-12-18T01:24:37;62.37;;;14.13;;
67248;SDS011;63247;54.300;18.592;2022-12-18T01:27:02;52.33;;;14.27;;
67248;SDS011;63247;54.300;18.592;2022-12-18T01:29:28;53.53;;;13.67;;
67248;SDS011;63247;54.300;18.592;2022-12-18T01:31:54;51.90;;;14.20;;
67248;SDS011;63247;54.300;18.592;2022-12-18T01:34:20;59.93;;;14.87;;
67248;SDS011;63247;54.300;18.592;2022-12-18T01:36:46;45.58;;;12.77;;
67248;SDS011;63247;54.300;18.592;2022-12-18T01:39:12;58.33;;;15.23;;
67248;SDS011;63247;54.300;18.592;2022-12-18T01:41:39;56.70;;;13.70;;
67248;SDS011;63247;54.300;18.592;2022-12-18T01:50:27;57.83;;;14.55;;
67248;SDS011;63247;54.300;18.592;2022-12-18T01:52:54;68.47;;;16.52;;
67248;SDS011;63247;54.300;18.592;2022-12-18T01:55:24;61.55;;;16.25;;
67248;SDS011;63247;54.300;18.592;2022-12-18T01:57:52;66.25;;;15.57;;
67248;SDS011;63247;54.300;18.592;2022-12-18T02:00:20;60.40;;;15.37;;
67248;SDS011;63247;54.300;18.592;2022-12-18T02:02:47;65.60;;;15.80;;
67248;SDS011;63247;54.300;18.592;2022-12-18T02:05:14;61.75;;;14.70;;
67248;SDS011;63247;54.300;18.592;2022-12-18T02:10:24;62.47;;;14.65;;
67248;SDS011;63247;54.300;18.592;2022-12-18T02:18:38;61.35;;;15.27;;
67248;SDS011;63247;54.300;18.592;2022-12-18T02:23:55;50.75;;;14.00;;
67248;SDS011;63247;54.300;18.592;2022-12-18T02:26:45;57.83;;;15.30;;
67248;SDS011;63247;54.300;18.592;2022-12-18T02:29:21;54.90;;;15.95;;
67248;SDS011;63247;54.300;18.592;2022-12-18T02:31:52;55.10;;;15.40;;
67248;SDS011;63247;54.300;18.592;2022-12-18T02:34:21;51.55;;;14.68;;
67248;SDS011;63247;54.300;18.592;2022-12-18T02:36:50;57.97;;;16.27;;
67248;SDS011;63247;54.300;18.592;2022-12-18T02:39:16;46.33;;;14.13;;
67248;SDS011;63247;54.300;18.592;2022-12-18T02:41:45;44.22;;;12.15;;
67248;SDS011;63247;54.300;18.592;2022-12-18T02:44:12;46.08;;;13.27;;
67248;SDS011;63247;54.300;18.592;2022-12-18T02:49:26;49.55;;;13.23;;
67248;SDS011;63247;54.300;18.592;2022-12-18T02:51:55;39.80;;;12.23;;
67248;SDS011;63247;54.300;18.592;2022-12-18T02:59:54;40.10;;;13.07;;
67248;SDS011;63247;54.300;18.592;2022-12-18T03:05:10;36.77;;;10.83;;
67248;SDS011;63247;54.300;18.592;2022-12-18T03:10:27;38.97;;;12.02;;
67248;SDS011;63247;54.300;18.592;2022-12-18T03:13:16;38.95;;;11.63;;
67248;SDS011;63247;54.300;18.592;2022-12-18T03:16:15;39.22;;;12.05;;
67248;SDS011;63247;54.300;18.592;2022-12-18T03:18:49;35.53;;;10.77;;
67248;SDS011;63247;54.300;18.592;2022-12-18T03:21:21;28.83;;;7.95;;
67248;SDS011;63247;54.300;18.592;2022-12-18T03:23:51;39.85;;;12.05;;
67248;SDS011;63247;54.300;18.592;2022-12-18T03:26:19;34.17;;;10.55;;
67248;SDS011;63247;54.300;18.592;2022-12-18T03:28:49;22.98;;;7.40;;
67248;SDS011;63247;54.300;18.592;2022-12-18T03:31:18;29.60;;;7.87;;
67248;SDS011;63247;54.300;18.592;2022-12-18T03:33:57;27.17;;;8.13;;
67248;SDS011;63247;54.300;18.592;2022-12-18T03:36:25;29.35;;;7.85;;
67248;SDS011;63247;54.300;18.592;2022-12-18T03:38:51;28.67;;;9.45;;
67248;SDS011;63247;54.300;18.592;2022-12-18T03:43:57;31.67;;;9.85;;
67248;SDS011;63247;54.300;18.592;2022-12-18T03:46:30;33.03;;;9.00;;
67248;SDS011;63247;54.300;18.592;2022-12-18T03:49:08;23.55;;;7.20;;
67248;SDS011;63247;54.300;18.592;2022-12-18T03:51:52;28.20;;;7.70;;
67248;SDS011;63247;54.300;18.592;2022-12-18T03:54:22;28.15;;;8.48;;
67248;SDS011;63247;54.300;18.592;2022-12-18T03:56:53;23.73;;;7.93;;
67248;SDS011;63247;54.300;18.592;2022-12-18T03:59:23;28.05;;;8.52;;
67248;SDS011;63247;54.300;18.592;2022-12-18T04:01:50;26.67;;;8.15;;
67248;SDS011;63247;54.300;18.592;2022-12-18T04:04:18;29.47;;;9.63;;
67248;SDS011;63247;54.300;18.592;2022-12-18T04:06:45;27.77;;;8.65;;
67248;SDS011;63247;54.300;18.592;2022-12-18T04:09:13;29.95;;;8.65;;
67248;SDS011;63247;54.300;18.592;2022-12-18T04:11:40;26.00;;;8.43;;
67248;SDS011;63247;54.300;18.592;2022-12-18T04:14:08;30.52;;;9.60;;
67248;SDS011;63247;54.300;18.592;2022-12-18T04:16:34;21.97;;;7.67;;
67248;SDS011;63247;54.300;18.592;2022-12-18T04:19:00;27.90;;;8.00;;
67248;SDS011;63247;54.300;18.592;2022-12-18T04:21:27;25.70;;;7.30;;
67248;SDS011;63247;54.300;18.592;2022-12-18T04:23:52;26.85;;;8.40;;
67248;SDS011;63247;54.300;18.592;2022-12-18T04:26:17;30.57;;;8.53;;
67248;SDS011;63247;54.300;18.592;2022-12-18T04:28:43;32.10;;;8.50;;
67248;SDS011;63247;54.300;18.592;2022-12-18T04:31:08;24.63;;;7.43;;
67248;SDS011;63247;54.300;18.592;2022-12-18T04:33:34;27.07;;;8.47;;
67248;SDS011;63247;54.300;18.592;2022-12-18T04:35:59;26.08;;;8.75;;
67248;SDS011;63247;54.300;18.592;2022-12-18T04:38:25;28.07;;;7.93;;
67248;SDS011;63247;54.300;18.592;2022-12-18T04:40:50;26.07;;;8.37;;
67248;SDS011;63247;54.300;18.592;2022-12-18T04:43:16;30.80;;;8.73;;
67248;SDS011;63247;54.300;18.592;2022-12-18T04:45:41;24.52;;;7.38;;
67248;SDS011;63247;54.300;18.592;2022-12-18T04:48:06;26.70;;;8.33;;
67248;SDS011;63247;54.300;18.592;2022-12-18T04:50:32;24.30;;;8.07;;
67248;SDS011;63247;54.300;18.592;2022-12-18T04:52:57;27.57;;;7.27;;
67248;SDS011;63247;54.300;18.592;2022-12-18T04:55:23;26.20;;;8.23;;
67248;SDS011;63247;54.300;18.592;2022-12-18T04:57:48;24.92;;;7.68;;
67248;SDS011;63247;54.300;18.592;2022-12-18T05:00:14;22.60;;;5.60;;
67248;SDS011;63247;54.300;18.592;2022-12-18T05:02:40;29.20;;;7.97;;
67248;SDS011;63247;54.300;18.592;2022-12-18T05:05:05;23.65;;;7.13;;
67248;SDS011;63247;54.300;18.592;2022-12-18T05:07:31;27.30;;;7.33;;
67248;SDS011;63247;54.300;18.592;2022-12-18T05:09:56;23.35;;;7.70;;
67248;SDS011;63247;54.300;18.592;2022-12-18T05:12:22;26.77;;;8.10;;
67248;SDS011;63247;54.300;18.592;2022-12-18T05:14:48;27.43;;;7.90;;
67248;SDS011;63247;54.300;18.592;2022-12-18T05:17:13;28.83;;;9.00;;
67248;SDS011;63247;54.300;18.592;2022-12-18T05:19:38;23.25;;;6.95;;
67248;SDS011;63247;54.300;18.592;2022-12-18T05:22:04;19.85;;;6.10;;
67248;SDS011;63247;54.300;18.592;2022-12-18T05:24:32;27.10;;;7.75;;
67248;SDS011;63247;54.300;18.592;2022-12-18T05:26:58;28.30;;;8.20;;
67248;SDS011;63247;54.300;18.592;2022-12-18T05:29:23;20.53;;;6.20;;
67248;SDS011;63247;54.300;18.592;2022-12-18T05:31:49;28.97;;;8.33;;
67248;SDS011;63247;54.300;18.592;2022-12-18T05:34:14;25.95;;;8.10;;
67248;SDS011;63247;54.300;18.592;2022-12-18T05:36:40;19.30;;;5.70;;
67248;SDS011;63247;54.300;18.592;2022-12-18T05:39:05;27.50;;;8.13;;
67248;SDS011;63247;54.300;18.592;2022-12-18T05:41:31;24.13;;;7.63;;
67248;SDS011;63247;54.300;18.592;2022-12-18T05:43:57;25.07;;;7.17;;
67248;SDS011;63247;54.300;18.592;2022-12-18T05:46:23;22.17;;;6.57;;
67248;SDS011;63247;54.300;18.592;2022-12-18T05:48:49;21.97;;;7.60;;
67248;SDS011;63247;54.300;18.592;2022-12-18T05:51:16;26.27;;;7.68;;
67248;SDS011;63247;54.300;18.592;2022-12-18T05:53:43;27.38;;;8.32;;
67248;SDS011;63247;54.300;18.592;2022-12-18T05:56:11;23.02;;;6.78;;
67248;SDS011;63247;54.300;18.592;2022-12-18T05:58:38;26.57;;;6.97;;
67248;SDS011;63247;54.300;18.592;2022-12-18T06:03:34;24.88;;;7.88;;
67248;SDS011;63247;54.300;18.592;2022-12-18T06:06:00;26.20;;;7.87;;
67248;SDS011;63247;54.300;18.592;2022-12-18T06:08:25;28.43;;;8.40;;
67248;SDS011;63247;54.300;18.592;2022-12-18T06:10:51;25.70;;;7.82;;
67248;SDS011;63247;54.300;18.592;2022-12-18T06:13:17;29.17;;;7.87;;
67248;SDS011;63247;54.300;18.592;2022-12-18T06:15:43;25.48;;;7.20;;
67248;SDS011;63247;54.300;18.592;2022-12-18T06:18:09;24.13;;;7.53;;
67248;SDS011;63247;54.300;18.592;2022-12-18T06:20:34;25.40;;;7.97;;
67248;SDS011;63247;54.300;18.592;2022-12-18T06:23:01;21.67;;;6.97;;
67248;SDS011;63247;54.300;18.592;2022-12-18T06:25:27;22.35;;;7.28;;
67248;SDS011;63247;54.300;18.592;2022-12-18T06:27:52;26.13;;;8.20;;
67248;SDS011;63247;54.300;18.592;2022-12-18T06:30:18;26.90;;;6.65;;
67248;SDS011;63247;54.300;18.592;2022-12-18T06:32:44;27.00;;;7.00;;
67248;SDS011;63247;54.300;18.592;2022-12-18T06:35:09;26.10;;;7.30;;
67248;SDS011;63247;54.300;18.592;2022-12-18T06:37:35;21.95;;;6.25;;
67248;SDS011;63247;54.300;18.592;2022-12-18T06:40:01;21.73;;;6.73;;
67248;SDS011;63247;54.300;18.592;2022-12-18T06:42:26;21.10;;;6.78;;
67248;SDS011;63247;54.300;18.592;2022-12-18T06:44:53;22.63;;;5.67;;
67248;SDS011;63247;54.300;18.592;2022-12-18T06:47:18;21.25;;;6.53;;
67248;SDS011;63247;54.300;18.592;2022-12-18T06:49:44;19.73;;;6.30;;
67248;SDS011;63247;54.300;18.592;2022-12-18T06:52:09;24.10;;;6.73;;
67248;SDS011;63247;54.300;18.592;2022-12-18T06:54:35;21.23;;;6.47;;
67248;SDS011;63247;54.300;18.592;2022-12-18T06:57:00;25.10;;;7.27;;
67248;SDS011;63247;54.300;18.592;2022-12-18T06:59:25;24.52;;;7.20;;
67248;SDS011;63247;54.300;18.592;2022-12-18T07:01:51;26.37;;;8.00;;
67248;SDS011;63247;54.300;18.592;2022-12-18T07:04:16;26.20;;;6.87;;
67248;SDS011;63247;54.300;18.592;2022-12-18T07:06:42;26.07;;;7.73;;
67248;SDS011;63247;54.300;18.592;2022-12-18T07:09:07;26.92;;;7.53;;
67248;SDS011;63247;54.300;18.592;2022-12-18T07:11:33;26.67;;;7.90;;
67248;SDS011;63247;54.300;18.592;2022-12-18T07:13:58;23.63;;;7.20;;
67248;SDS011;63247;54.300;18.592;2022-12-18T07:16:24;24.92;;;7.63;;
67248;SDS011;63247;54.300;18.592;2022-12-18T07:18:50;22.47;;;6.97;;
67248;SDS011;63247;54.300;18.592;2022-12-18T07:21:16;22.87;;;7.43;;
67248;SDS011;63247;54.300;18.592;2022-12-18T07:23:43;21.77;;;6.35;;
67248;SDS011;63247;54.300;18.592;2022-12-18T07:26:10;20.50;;;6.30;;
67248;SDS011;63247;54.300;18.592;2022-12-18T07:28:37;18.10;;;5.55;;
67248;SDS011;63247;54.300;18.592;2022-12-18T07:31:08;20.33;;;6.85;;
67248;SDS011;63247;54.300;18.592;2022-12-18T07:33:37;19.67;;;5.90;;
67248;SDS011;63247;54.300;18.592;2022-12-18T07:36:04;16.58;;;5.13;;
67248;SDS011;63247;54.300;18.592;2022-12-18T07:38:31;15.45;;;5.20;;
67248;SDS011;63247;54.300;18.592;2022-12-18T07:41:01;15.30;;;5.05;;
67248;SDS011;63247;54.300;18.592;2022-12-18T07:43:31;16.10;;;5.30;;
67248;SDS011;63247;54.300;18.592;2022-12-18T07:45:57;17.90;;;5.38;;
67248;SDS011;63247;54.300;18.592;2022-12-18T07:48:23;14.82;;;5.13;;
67248;SDS011;63247;54.300;18.592;2022-12-18T07:50:48;15.23;;;5.33;;
67248;SDS011;63247;54.300;18.592;2022-12-18T07:53:14;15.00;;;5.50;;
67248;SDS011;63247;54.300;18.592;2022-12-18T07:55:40;13.60;;;5.30;;
67248;SDS011;63247;54.300;18.592;2022-12-18T07:58:06;17.07;;;5.67;;
67248;SDS011;63247;54.300;18.592;2022-12-18T08:00:32;14.93;;;5.10;;
67248;SDS011;63247;54.300;18.592;2022-12-18T08:02:58;12.57;;;4.40;;
67248;SDS011;63247;54.300;18.592;2022-12-18T08:05:23;15.07;;;4.60;;
67248;SDS011;63247;54.300;18.592;2022-12-18T08:07:49;13.00;;;4.88;;
67248;SDS011;63247;54.300;18.592;2022-12-18T08:10:15;14.40;;;5.10;;
67248;SDS011;63247;54.300;18.592;2022-12-18T08:12:40;11.67;;;4.33;;
67248;SDS011;63247;54.300;18.592;2022-12-18T08:15:06;13.40;;;4.90;;
67248;SDS011;63247;54.300;18.592;2022-12-18T08:17:31;16.20;;;6.15;;
67248;SDS011;63247;54.300;18.592;2022-12-18T08:19:57;13.87;;;5.20;;
67248;SDS011;63247;54.300;18.592;2022-12-18T08:22:22;14.40;;;5.57;;
67248;SDS011;63247;54.300;18.592;2022-12-18T08:24:48;13.82;;;5.43;;
67248;SDS011;63247;54.300;18.592;2022-12-18T08:27:13;16.27;;;6.13;;
67248;SDS011;63247;54.300;18.592;2022-12-18T08:29:39;17.57;;;5.90;;
67248;SDS011;63247;54.300;18.592;2022-12-18T08:32:04;16.70;;;6.37;;
67248;SDS011;63247;54.300;18.592;2022-12-18T08:34:30;17.45;;;6.60;;
67248;SDS011;63247;54.300;18.592;2022-12-18T08:36:55;17.73;;;6.30;;
67248;SDS011;63247;54.300;18.592;2022-12-18T08:39:21;16.83;;;6.97;;
67248;SDS011;63247;54.300;18.592;2022-12-18T08:41:46;16.87;;;6.87;;
67248;SDS011;63247;54.300;18.592;2022-12-18T08:44:31;16.38;;;6.60;;
67248;SDS011;63247;54.300;18.592;2022-12-18T08:47:03;18.92;;;6.72;;
67248;SDS011;63247;54.300;18.592;2022-12-18T08:49:29;16.98;;;6.72;;
67248;SDS011;63247;54.300;18.592;2022-12-18T08:51:55;20.77;;;7.87;;
67248;SDS011;63247;54.300;18.592;2022-12-18T08:54:22;20.25;;;7.93;;
67248;SDS011;63247;54.300;18.592;2022-12-18T08:56:48;20.52;;;8.10;;
67248;SDS011;63247;54.300;18.592;2022-12-18T08:59:15;20.57;;;8.37;;
67248;SDS011;63247;54.300;18.592;2022-12-18T09:01:41;18.00;;;7.60;;
67248;SDS011;63247;54.300;18.592;2022-12-18T09:04:07;18.93;;;7.50;;
67248;SDS011;63247;54.300;18.592;2022-12-18T09:06:34;19.48;;;7.55;;
67248;SDS011;63247;54.300;18.592;2022-12-18T09:08:59;18.23;;;6.80;;
67248;SDS011;63247;54.300;18.592;2022-12-18T09:11:26;19.95;;;7.53;;
67248;SDS011;63247;54.300;18.592;2022-12-18T09:13:52;20.52;;;7.72;;
67248;SDS011;63247;54.300;18.592;2022-12-18T09:16:19;18.23;;;7.10;;
67248;SDS011;63247;54.300;18.592;2022-12-18T09:18:45;20.33;;;7.85;;
67248;SDS011;63247;54.300;18.592;2022-12-18T09:21:12;18.23;;;7.85;;
67248;SDS011;63247;54.300;18.592;2022-12-18T09:23:40;20.70;;;8.15;;
67248;SDS011;63247;54.300;18.592;2022-12-18T09:26:06;21.30;;;7.75;;
67248;SDS011;63247;54.300;18.592;2022-12-18T09:28:32;22.97;;;7.97;;
67248;SDS011;63247;54.300;18.592;2022-12-18T09:30:57;17.33;;;6.85;;
67248;SDS011;63247;54.300;18.592;2022-12-18T09:33:23;18.63;;;7.23;;
67248;SDS011;63247;54.300;18.592;2022-12-18T09:35:49;18.67;;;7.20;;
67248;SDS011;63247;54.300;18.592;2022-12-18T09:38:15;18.90;;;7.30;;
67248;SDS011;63247;54.300;18.592;2022-12-18T09:40:48;17.90;;;7.13;;
67248;SDS011;63247;54.300;18.592;2022-12-18T09:43:28;20.80;;;7.37;;
67248;SDS011;63247;54.300;18.592;2022-12-18T09:46:00;18.20;;;7.32;;
67248;SDS011;63247;54.300;18.592;2022-12-18T09:48:29;18.70;;;7.53;;
67248;SDS011;63247;54.300;18.592;2022-12-18T09:51:04;17.88;;;7.43;;
67248;SDS011;63247;54.300;18.592;2022-12-18T09:53:58;19.70;;;7.30;;
67248;SDS011;63247;54.300;18.592;2022-12-18T09:56:28;24.07;;;8.37;;
67248;SDS011;63247;54.300;18.592;2022-12-18T09:58:57;20.95;;;7.68;;
67248;SDS011;63247;54.300;18.592;2022-12-18T10:01:24;22.08;;;7.90;;
67248;SDS011;63247;54.300;18.592;2022-12-18T10:03:51;27.38;;;8.45;;
67248;SDS011;63247;54.300;18.592;2022-12-18T10:09:01;21.93;;;7.27;;
67248;SDS011;63247;54.300;18.592;2022-12-18T10:11:57;21.40;;;7.75;;
67248;SDS011;63247;54.300;18.592;2022-12-18T10:20:09;19.55;;;7.65;;
67248;SDS011;63247;54.300;18.592;2022-12-18T10:23:04;22.80;;;7.33;;
67248;SDS011;63247;54.300;18.592;2022-12-18T10:26:05;21.95;;;7.82;;
67248;SDS011;63247;54.300;18.592;2022-12-18T10:28:33;23.90;;;8.45;;
67248;SDS011;63247;54.300;18.592;2022-12-18T10:31:01;22.98;;;8.57;;
67248;SDS011;63247;54.300;18.592;2022-12-18T10:33:29;21.83;;;7.55;;
67248;SDS011;63247;54.300;18.592;2022-12-18T10:35:56;21.47;;;7.90;;
67248;SDS011;63247;54.300;18.592;2022-12-18T10:38:29;20.00;;;7.65;;
67248;SDS011;63247;54.300;18.592;2022-12-18T10:43:33;18.93;;;6.80;;
67248;SDS011;63247;54.300;18.592;2022-12-18T10:48:55;18.95;;;6.63;;
67248;SDS011;63247;54.300;18.592;2022-12-18T10:51:30;21.13;;;7.10;;
67248;SDS011;63247;54.300;18.592;2022-12-18T10:54:04;20.70;;;6.47;;
67248;SDS011;63247;54.300;18.592;2022-12-18T10:56:32;17.57;;;6.97;;
67248;SDS011;63247;54.300;18.592;2022-12-18T10:59:03;17.08;;;6.30;;
67248;SDS011;63247;54.300;18.592;2022-12-18T11:01:44;18.45;;;6.38;;
67248;SDS011;63247;54.300;18.592;2022-12-18T11:04:24;17.55;;;6.38;;
67248;SDS011;63247;54.300;18.592;2022-12-18T11:09:27;18.97;;;6.50;;
67248;SDS011;63247;54.300;18.592;2022-12-18T11:11:59;17.83;;;7.30;;
67248;SDS011;63247;54.300;18.592;2022-12-18T11:14:34;22.08;;;6.93;;
67248;SDS011;63247;54.300;18.592;2022-12-18T11:17:16;20.30;;;6.70;;
67248;SDS011;63247;54.300;18.592;2022-12-18T11:19:59;18.73;;;6.32;;
67248;SDS011;63247;54.300;18.592;2022-12-18T11:22:43;20.67;;;6.37;;
67248;SDS011;63247;54.300;18.592;2022-12-18T11:25:19;20.10;;;5.93;;
67248;SDS011;63247;54.300;18.592;2022-12-18T11:27:57;15.98;;;5.60;;
67248;SDS011;63247;54.300;18.592;2022-12-18T11:30:29;25.27;;;8.07;;
67248;SDS011;63247;54.300;18.592;2022-12-18T11:32:58;18.63;;;5.90;;
67248;SDS011;63247;54.300;18.592;2022-12-18T11:38:36;15.57;;;5.47;;
67248;SDS011;63247;54.300;18.592;2022-12-18T11:41:05;21.88;;;6.18;;
67248;SDS011;63247;54.300;18.592;2022-12-18T11:43:48;19.53;;;5.33;;
67248;SDS011;63247;54.300;18.592;2022-12-18T11:46:30;20.52;;;5.60;;
67248;SDS011;63247;54.300;18.592;2022-12-18T11:49:01;20.17;;;5.40;;
67248;SDS011;63247;54.300;18.592;2022-12-18T11:51:43;17.15;;;5.35;;
67248;SDS011;63247;54.300;18.592;2022-12-18T11:54:18;23.25;;;6.95;;
67248;SDS011;63247;54.300;18.592;2022-12-18T11:57:07;17.87;;;5.90;;
67248;SDS011;63247;54.300;18.592;2022-12-18T12:02:53;18.55;;;5.60;;
67248;SDS011;63247;54.300;18.592;2022-12-18T12:11:46;16.20;;;5.53;;
67248;SDS011;63247;54.300;18.592;2022-12-18T12:14:24;18.25;;;5.10;;
67248;SDS011;63247;54.300;18.592;2022-12-18T12:20:00;16.90;;;4.63;;
67248;SDS011;63247;54.300;18.592;2022-12-18T12:22:42;15.25;;;4.10;;
67248;SDS011;63247;54.300;18.592;2022-12-18T12:38:54;14.35;;;4.10;;
67248;SDS011;63247;54.300;18.592;2022-12-18T12:41:26;16.65;;;4.50;;
67248;SDS011;63247;54.300;18.592;2022-12-18T12:44:16;16.30;;;4.25;;
67248;SDS011;63247;54.300;18.592;2022-12-18T12:46:47;16.67;;;4.87;;
67248;SDS011;63247;54.300;18.592;2022-12-18T12:49:15;14.35;;;3.67;;
67248;SDS011;63247;54.300;18.592;2022-12-18T12:51:44;17.05;;;4.88;;
67248;SDS011;63247;54.300;18.592;2022-12-18T12:54:19;17.65;;;5.43;;
67248;SDS011;63247;54.300;18.592;2022-12-18T13:02:27;18.27;;;4.95;;
67248;SDS011;63247;54.300;18.592;2022-12-18T13:07:56;15.98;;;4.93;;
67248;SDS011;63247;54.300;18.592;2022-12-18T13:13:52;15.13;;;4.73;;
67248;SDS011;63247;54.300;18.592;2022-12-18T13:16:20;17.50;;;5.70;;
67248;SDS011;63247;54.300;18.592;2022-12-18T13:18:54;15.15;;;4.80;;
67248;SDS011;63247;54.300;18.592;2022-12-18T13:21:25;16.15;;;5.32;;
67248;SDS011;63247;54.300;18.592;2022-12-18T13:23:54;19.95;;;5.82;;
67248;SDS011;63247;54.300;18.592;2022-12-18T13:28:50;18.35;;;5.78;;
67248;SDS011;63247;54.300;18.592;2022-12-18T13:34:09;19.00;;;5.95;;
67248;SDS011;63247;54.300;18.592;2022-12-18T13:36:44;19.75;;;6.13;;
67248;SDS011;63247;54.300;18.592;2022-12-18T13:44:37;15.43;;;5.35;;
67248;SDS011;63247;54.300;18.592;2022-12-18T13:49:56;16.53;;;5.47;;
67248;SDS011;63247;54.300;18.592;2022-12-18T13:52:23;13.55;;;4.85;;
67248;SDS011;63247;54.300;18.592;2022-12-18T13:54:54;14.57;;;4.97;;
67248;SDS011;63247;54.300;18.592;2022-12-18T13:57:26;17.52;;;5.65;;
67248;SDS011;63247;54.300;18.592;2022-12-18T13:59:53;15.73;;;5.13;;
67248;SDS011;63247;54.300;18.592;2022-12-18T14:02:22;16.17;;;5.20;;
67248;SDS011;63247;54.300;18.592;2022-12-18T14:04:50;15.93;;;4.93;;
67248;SDS011;63247;54.300;18.592;2022-12-18T14:07:17;19.20;;;5.90;;
67248;SDS011;63247;54.300;18.592;2022-12-18T14:09:46;21.10;;;7.20;;
67248;SDS011;63247;54.300;18.592;2022-12-18T14:12:16;22.08;;;7.43;;
67248;SDS011;63247;54.300;18.592;2022-12-18T14:15:03;21.00;;;7.80;;
67248;SDS011;63247;54.300;18.592;2022-12-18T14:17:34;24.98;;;7.28;;
67248;SDS011;63247;54.300;18.592;2022-12-18T14:20:01;23.25;;;7.18;;
67248;SDS011;63247;54.300;18.592;2022-12-18T14:22:27;25.50;;;7.80;;
67248;SDS011;63247;54.300;18.592;2022-12-18T14:27:42;24.77;;;7.47;;
67248;SDS011;63247;54.300;18.592;2022-12-18T14:30:23;27.05;;;7.45;;
67248;SDS011;63247;54.300;18.592;2022-12-18T14:35:37;22.40;;;7.33;;
67248;SDS011;63247;54.300;18.592;2022-12-18T14:38:25;30.15;;;7.75;;
67248;SDS011;63247;54.300;18.592;2022-12-18T14:40:54;28.23;;;7.75;;
67248;SDS011;63247;54.300;18.592;2022-12-18T14:43:22;25.80;;;7.13;;
67248;SDS011;63247;54.300;18.592;2022-12-18T14:45:47;16.48;;;5.50;;
67248;SDS011;63247;54.300;18.592;2022-12-18T14:48:21;25.45;;;7.97;;
67248;SDS011;63247;54.300;18.592;2022-12-18T14:50:54;26.55;;;8.68;;
67248;SDS011;63247;54.300;18.592;2022-12-18T14:53:32;23.75;;;7.65;;
67248;SDS011;63247;54.300;18.592;2022-12-18T14:55:58;25.48;;;8.43;;
67248;SDS011;63247;54.300;18.592;2022-12-18T14:58:25;29.47;;;9.47;;
67248;SDS011;63247;54.300;18.592;2022-12-18T15:00:50;31.48;;;9.57;;
67248;SDS011;63247;54.300;18.592;2022-12-18T15:03:20;35.17;;;11.17;;
67248;SDS011;63247;54.300;18.592;2022-12-18T15:05:46;33.53;;;10.55;;
67248;SDS011;63247;54.300;18.592;2022-12-18T15:11:01;33.20;;;10.35;;
67248;SDS011;63247;54.300;18.592;2022-12-18T15:13:27;33.80;;;10.53;;
67248;SDS011;63247;54.300;18.592;2022-12-18T15:15:53;30.45;;;10.13;;
67248;SDS011;63247;54.300;18.592;2022-12-18T15:18:21;27.97;;;8.77;;
67248;SDS011;63247;54.300;18.592;2022-12-18T15:20:57;33.05;;;10.80;;
67248;SDS011;63247;54.300;18.592;2022-12-18T15:23:30;33.38;;;10.50;;
67248;SDS011;63247;54.300;18.592;2022-12-18T15:26:04;23.83;;;8.40;;
67248;SDS011;63247;54.300;18.592;2022-12-18T15:28:51;22.33;;;7.10;;
67248;SDS011;63247;54.300;18.592;2022-12-18T15:31:24;27.33;;;8.07;;
67248;SDS011;63247;54.300;18.592;2022-12-18T15:36:24;32.00;;;10.65;;
67248;SDS011;63247;54.300;18.592;2022-12-18T15:38:50;30.23;;;8.90;;
67248;SDS011;63247;54.300;18.592;2022-12-18T15:41:17;36.53;;;10.17;;
67248;SDS011;63247;54.300;18.592;2022-12-18T15:43:46;42.28;;;11.10;;
67248;SDS011;63247;54.300;18.592;2022-12-18T15:46:14;28.40;;;9.80;;
67248;SDS011;63247;54.300;18.592;2022-12-18T15:48:42;33.78;;;9.05;;
67248;SDS011;63247;54.300;18.592;2022-12-18T15:53:56;34.83;;;10.53;;
67248;SDS011;63247;54.300;18.592;2022-12-18T15:56:24;38.30;;;10.00;;
67248;SDS011;63247;54.300;18.592;2022-12-18T15:59:12;32.75;;;9.60;;
67248;SDS011;63247;54.300;18.592;2022-12-18T16:01:40;44.72;;;12.73;;
67248;SDS011;63247;54.300;18.592;2022-12-18T16:04:08;34.40;;;10.45;;
67248;SDS011;63247;54.300;18.592;2022-12-18T16:06:36;46.93;;;14.43;;
67248;SDS011;63247;54.300;18.592;2022-12-18T16:09:02;49.45;;;13.35;;
67248;SDS011;63247;54.300;18.592;2022-12-18T16:11:28;50.67;;;15.40;;
67248;SDS011;63247;54.300;18.592;2022-12-18T16:14:05;51.45;;;15.82;;
67248;SDS011;63247;54.300;18.592;2022-12-18T16:16:52;44.53;;;11.82;;
67248;SDS011;63247;54.300;18.592;2022-12-18T16:19:19;49.67;;;13.33;;
67248;SDS011;63247;54.300;18.592;2022-12-18T16:21:46;47.20;;;12.15;;
67248;SDS011;63247;54.300;18.592;2022-12-18T16:24:17;47.90;;;13.32;;
67248;SDS011;63247;54.300;18.592;2022-12-18T16:26:44;41.50;;;12.07;;
67248;SDS011;63247;54.300;18.592;2022-12-18T16:29:09;48.87;;;15.30;;
67248;SDS011;63247;54.300;18.592;2022-12-18T16:31:36;41.45;;;10.50;;